sensor_id;sensor_type;location;lat;lon;timestamp;P1;durP1;ratioP1;P2;durP2;ratioP2
36799;SDS011;22752;51.960;5.886;2023-10-08T00:01:24;17.38;;;5.10;;
36799;SDS011;22752;51.960;5.886;2023-10-08T00:03:49;15.50;;;4.88;;
36799;SDS011;22752;51.960;5.886;2023-10-08T00:06:19;15.40;;;4.45;;
36799;SDS011;22752;51.960;5.886;2023-10-08T00:11:15;12.00;;;4.05;;
36799;SDS011;22752;51.960;5.886;2023-10-08T00:13:43;18.48;;;4.70;;
36799;SDS011;22752;51.960;5.886;2023-10-08T00:16:10;16.02;;;5.05;;
36799;SDS011;22752;51.960;5.886;2023-10-08T00:21:16;18.92;;;5.28;;
36799;SDS011;22752;51.960;5.886;2023-10-08T00:24:02;19.20;;;4.97;;
36799;SDS011;22752;51.960;5.886;2023-10-08T00:26:31;20.17;;;5.00;;
36799;SDS011;22752;51.960;5.886;2023-10-08T00:29:00;19.35;;;5.55;;
36799;SDS011;22752;51.960;5.886;2023-10-08T00:31:26;13.95;;;5.18;;
36799;SDS011;22752;51.960;5.886;2023-10-08T00:33:57;15.90;;;4.35;;
36799;SDS011;22752;51.960;5.886;2023-10-08T00:36:23;17.58;;;5.15;;
36799;SDS011;22752;51.960;5.886;2023-10-08T00:38:52;17.17;;;4.28;;
36799;SDS011;22752;51.960;5.886;2023-10-08T00:41:25;19.25;;;5.45;;
36799;SDS011;22752;51.960;5.886;2023-10-08T00:43:57;12.52;;;4.40;;
36799;SDS011;22752;51.960;5.886;2023-10-08T00:46:25;23.27;;;5.93;;
36799;SDS011;22752;51.960;5.886;2023-10-08T00:48:58;13.63;;;4.53;;
36799;SDS011;22752;51.960;5.886;2023-10-08T00:51:44;15.57;;;4.90;;
36799;SDS011;22752;51.960;5.886;2023-10-08T00:54:24;18.52;;;4.63;;
36799;SDS011;22752;51.960;5.886;2023-10-08T00:56:50;15.40;;;4.45;;
36799;SDS011;22752;51.960;5.886;2023-10-08T00:59:22;15.23;;;4.70;;
36799;SDS011;22752;51.960;5.886;2023-10-08T01:01:51;22.50;;;5.38;;
36799;SDS011;22752;51.960;5.886;2023-10-08T01:04:23;19.35;;;5.30;;
36799;SDS011;22752;51.960;5.886;2023-10-08T01:06:53;13.15;;;4.30;;
36799;SDS011;22752;51.960;5.886;2023-10-08T01:09:21;18.65;;;5.20;;
36799;SDS011;22752;51.960;5.886;2023-10-08T01:14:37;20.02;;;5.05;;
36799;SDS011;22752;51.960;5.886;2023-10-08T01:17:02;18.60;;;5.55;;
36799;SDS011;22752;51.960;5.886;2023-10-08T01:19:31;19.58;;;5.50;;
36799;SDS011;22752;51.960;5.886;2023-10-08T01:24:32;15.45;;;5.05;;
36799;SDS011;22752;51.960;5.886;2023-10-08T01:27:00;18.90;;;5.72;;
36799;SDS011;22752;51.960;5.886;2023-10-08T01:29:29;13.57;;;4.70;;
36799;SDS011;22752;51.960;5.886;2023-10-08T01:31:54;22.25;;;6.05;;
36799;SDS011;22752;51.960;5.886;2023-10-08T01:34:22;18.00;;;5.68;;
36799;SDS011;22752;51.960;5.886;2023-10-08T01:36:53;16.90;;;4.85;;
36799;SDS011;22752;51.960;5.886;2023-10-08T01:39:18;17.27;;;4.93;;
36799;SDS011;22752;51.960;5.886;2023-10-08T01:41:45;18.08;;;5.03;;
36799;SDS011;22752;51.960;5.886;2023-10-08T01:44:12;20.17;;;5.15;;
36799;SDS011;22752;51.960;5.886;2023-10-08T01:46:38;16.77;;;4.68;;
36799;SDS011;22752;51.960;5.886;2023-10-08T01:49:06;16.25;;;5.07;;
36799;SDS011;22752;51.960;5.886;2023-10-08T01:51:39;20.63;;;6.28;;
36799;SDS011;22752;51.960;5.886;2023-10-08T01:54:11;19.27;;;6.82;;
36799;SDS011;22752;51.960;5.886;2023-10-08T01:56:40;21.63;;;6.85;;
36799;SDS011;22752;51.960;5.886;2023-10-08T01:59:13;24.27;;;8.40;;
36799;SDS011;22752;51.960;5.886;2023-10-08T02:01:40;17.95;;;7.45;;
36799;SDS011;22752;51.960;5.886;2023-10-08T02:04:07;25.33;;;9.82;;
36799;SDS011;22752;51.960;5.886;2023-10-08T02:06:34;19.63;;;8.43;;
36799;SDS011;22752;51.960;5.886;2023-10-08T02:09:01;27.10;;;10.13;;
36799;SDS011;22752;51.960;5.886;2023-10-08T02:11:42;27.33;;;11.55;;
36799;SDS011;22752;51.960;5.886;2023-10-08T02:14:09;30.08;;;12.85;;
36799;SDS011;22752;51.960;5.886;2023-10-08T02:16:34;29.35;;;12.15;;
36799;SDS011;22752;51.960;5.886;2023-10-08T02:19:02;29.50;;;11.70;;
36799;SDS011;22752;51.960;5.886;2023-10-08T02:21:28;26.83;;;10.85;;
36799;SDS011;22752;51.960;5.886;2023-10-08T02:23:54;32.13;;;12.43;;
36799;SDS011;22752;51.960;5.886;2023-10-08T02:26:20;30.23;;;13.68;;
36799;SDS011;22752;51.960;5.886;2023-10-08T02:28:45;33.63;;;13.82;;
36799;SDS011;22752;51.960;5.886;2023-10-08T02:31:11;31.83;;;12.38;;
36799;SDS011;22752;51.960;5.886;2023-10-08T02:33:37;27.02;;;11.65;;
36799;SDS011;22752;51.960;5.886;2023-10-08T02:36:03;24.40;;;11.50;;
36799;SDS011;22752;51.960;5.886;2023-10-08T02:38:29;28.27;;;10.60;;
36799;SDS011;22752;51.960;5.886;2023-10-08T02:41:03;25.60;;;10.10;;
36799;SDS011;22752;51.960;5.886;2023-10-08T02:43:32;24.20;;;8.82;;
36799;SDS011;22752;51.960;5.886;2023-10-08T02:46:01;20.88;;;7.78;;
36799;SDS011;22752;51.960;5.886;2023-10-08T02:48:32;23.63;;;8.95;;
36799;SDS011;22752;51.960;5.886;2023-10-08T02:50:59;21.27;;;7.10;;
36799;SDS011;22752;51.960;5.886;2023-10-08T02:53:36;20.92;;;6.93;;
36799;SDS011;22752;51.960;5.886;2023-10-08T02:56:01;19.67;;;6.75;;
36799;SDS011;22752;51.960;5.886;2023-10-08T02:58:37;17.45;;;6.15;;
36799;SDS011;22752;51.960;5.886;2023-10-08T03:01:04;14.98;;;6.57;;
36799;SDS011;22752;51.960;5.886;2023-10-08T03:03:29;13.13;;;5.82;;
36799;SDS011;22752;51.960;5.886;2023-10-08T03:05:57;18.52;;;6.75;;
36799;SDS011;22752;51.960;5.886;2023-10-08T03:08:23;19.58;;;7.05;;
36799;SDS011;22752;51.960;5.886;2023-10-08T03:10:52;16.65;;;6.20;;
36799;SDS011;22752;51.960;5.886;2023-10-08T03:13:21;16.33;;;6.65;;
36799;SDS011;22752;51.960;5.886;2023-10-08T03:15:47;21.10;;;6.28;;
36799;SDS011;22752;51.960;5.886;2023-10-08T03:18:25;9.40;;;4.90;;
36799;SDS011;22752;51.960;5.886;2023-10-08T03:21:00;15.52;;;6.13;;
36799;SDS011;22752;51.960;5.886;2023-10-08T03:23:29;15.65;;;6.15;;
36799;SDS011;22752;51.960;5.886;2023-10-08T03:26:02;17.52;;;6.93;;
36799;SDS011;22752;51.960;5.886;2023-10-08T03:28:36;14.52;;;6.15;;
36799;SDS011;22752;51.960;5.886;2023-10-08T03:31:02;15.98;;;5.70;;
36799;SDS011;22752;51.960;5.886;2023-10-08T03:33:33;11.75;;;5.25;;
36799;SDS011;22752;51.960;5.886;2023-10-08T03:36:03;12.65;;;5.38;;
36799;SDS011;22752;51.960;5.886;2023-10-08T03:38:35;18.10;;;6.35;;
36799;SDS011;22752;51.960;5.886;2023-10-08T03:41:22;13.57;;;5.75;;
36799;SDS011;22752;51.960;5.886;2023-10-08T03:43:55;15.30;;;6.28;;
36799;SDS011;22752;51.960;5.886;2023-10-08T03:46:30;12.63;;;5.18;;
36799;SDS011;22752;51.960;5.886;2023-10-08T03:48:59;18.02;;;6.28;;
36799;SDS011;22752;51.960;5.886;2023-10-08T03:54:00;12.82;;;5.55;;
36799;SDS011;22752;51.960;5.886;2023-10-08T03:56:34;11.13;;;5.05;;
36799;SDS011;22752;51.960;5.886;2023-10-08T03:59:04;12.30;;;5.05;;
36799;SDS011;22752;51.960;5.886;2023-10-08T04:01:38;16.20;;;6.43;;
36799;SDS011;22752;51.960;5.886;2023-10-08T04:04:05;12.13;;;5.22;;
36799;SDS011;22752;51.960;5.886;2023-10-08T04:06:37;19.08;;;7.25;;
36799;SDS011;22752;51.960;5.886;2023-10-08T04:09:04;21.38;;;6.63;;
36799;SDS011;22752;51.960;5.886;2023-10-08T04:11:33;15.32;;;5.72;;
36799;SDS011;22752;51.960;5.886;2023-10-08T04:14:14;15.20;;;6.45;;
36799;SDS011;22752;51.960;5.886;2023-10-08T04:16:43;14.60;;;5.72;;
36799;SDS011;22752;51.960;5.886;2023-10-08T04:19:09;11.05;;;5.28;;
36799;SDS011;22752;51.960;5.886;2023-10-08T04:21:36;16.10;;;6.63;;
36799;SDS011;22752;51.960;5.886;2023-10-08T04:24:02;16.85;;;6.38;;
36799;SDS011;22752;51.960;5.886;2023-10-08T04:26:31;12.20;;;5.30;;
36799;SDS011;22752;51.960;5.886;2023-10-08T04:28:57;14.20;;;6.32;;
36799;SDS011;22752;51.960;5.886;2023-10-08T04:31:27;15.57;;;6.07;;
36799;SDS011;22752;51.960;5.886;2023-10-08T04:34:03;15.40;;;7.15;;
36799;SDS011;22752;51.960;5.886;2023-10-08T04:36:44;18.33;;;7.03;;
36799;SDS011;22752;51.960;5.886;2023-10-08T04:39:11;16.63;;;7.32;;
36799;SDS011;22752;51.960;5.886;2023-10-08T04:41:46;26.52;;;9.50;;
36799;SDS011;22752;51.960;5.886;2023-10-08T04:44:14;24.80;;;8.23;;
36799;SDS011;22752;51.960;5.886;2023-10-08T04:46:44;22.88;;;7.82;;
36799;SDS011;22752;51.960;5.886;2023-10-08T04:49:16;30.70;;;7.85;;
36799;SDS011;22752;51.960;5.886;2023-10-08T04:51:51;16.80;;;6.38;;
36799;SDS011;22752;51.960;5.886;2023-10-08T04:54:22;16.05;;;7.35;;
36799;SDS011;22752;51.960;5.886;2023-10-08T04:56:55;18.88;;;6.00;;
36799;SDS011;22752;51.960;5.886;2023-10-08T04:59:23;19.15;;;6.38;;
36799;SDS011;22752;51.960;5.886;2023-10-08T05:01:57;20.73;;;6.47;;
36799;SDS011;22752;51.960;5.886;2023-10-08T05:04:48;16.63;;;5.63;;
36799;SDS011;22752;51.960;5.886;2023-10-08T05:07:18;14.68;;;5.22;;
36799;SDS011;22752;51.960;5.886;2023-10-08T05:10:16;20.15;;;6.13;;
36799;SDS011;22752;51.960;5.886;2023-10-08T05:12:54;15.55;;;5.63;;
36799;SDS011;22752;51.960;5.886;2023-10-08T05:15:40;16.02;;;5.22;;
36799;SDS011;22752;51.960;5.886;2023-10-08T05:18:24;17.00;;;4.85;;
36799;SDS011;22752;51.960;5.886;2023-10-08T05:21:03;21.42;;;5.72;;
36799;SDS011;22752;51.960;5.886;2023-10-08T05:23:48;15.48;;;4.60;;
36799;SDS011;22752;51.960;5.886;2023-10-08T05:26:35;13.00;;;4.28;;
36799;SDS011;22752;51.960;5.886;2023-10-08T05:29:08;10.73;;;3.88;;
36799;SDS011;22752;51.960;5.886;2023-10-08T05:31:52;14.75;;;4.38;;
36799;SDS011;22752;51.960;5.886;2023-10-08T05:34:38;15.32;;;5.80;;
36799;SDS011;22752;51.960;5.886;2023-10-08T05:37:16;11.52;;;4.45;;
36799;SDS011;22752;51.960;5.886;2023-10-08T05:39:58;17.10;;;5.45;;
36799;SDS011;22752;51.960;5.886;2023-10-08T05:42:37;15.57;;;5.30;;
36799;SDS011;22752;51.960;5.886;2023-10-08T05:45:11;15.88;;;5.63;;
36799;SDS011;22752;51.960;5.886;2023-10-08T05:47:37;14.40;;;4.85;;
36799;SDS011;22752;51.960;5.886;2023-10-08T05:50:04;17.75;;;5.63;;
36799;SDS011;22752;51.960;5.886;2023-10-08T05:52:56;23.50;;;6.20;;
36799;SDS011;22752;51.960;5.886;2023-10-08T05:55:22;19.45;;;6.55;;
36799;SDS011;22752;51.960;5.886;2023-10-08T05:57:55;19.35;;;5.97;;
36799;SDS011;22752;51.960;5.886;2023-10-08T06:00:41;12.07;;;5.40;;
36799;SDS011;22752;51.960;5.886;2023-10-08T06:03:14;13.45;;;5.22;;
36799;SDS011;22752;51.960;5.886;2023-10-08T06:06:01;14.65;;;5.57;;
36799;SDS011;22752;51.960;5.886;2023-10-08T06:08:49;12.15;;;5.65;;
36799;SDS011;22752;51.960;5.886;2023-10-08T06:11:46;13.23;;;4.63;;
36799;SDS011;22752;51.960;5.886;2023-10-08T06:14:34;16.63;;;5.70;;
36799;SDS011;22752;51.960;5.886;2023-10-08T06:17:31;15.20;;;4.63;;
36799;SDS011;22752;51.960;5.886;2023-10-08T06:20:21;13.65;;;5.35;;
36799;SDS011;22752;51.960;5.886;2023-10-08T06:22:51;8.65;;;4.00;;
36799;SDS011;22752;51.960;5.886;2023-10-08T06:25:19;11.40;;;4.18;;
36799;SDS011;22752;51.960;5.886;2023-10-08T06:27:49;8.75;;;3.92;;
36799;SDS011;22752;51.960;5.886;2023-10-08T06:30:20;13.85;;;4.93;;
36799;SDS011;22752;51.960;5.886;2023-10-08T06:32:46;11.88;;;4.80;;
36799;SDS011;22752;51.960;5.886;2023-10-08T06:35:13;8.85;;;4.05;;
36799;SDS011;22752;51.960;5.886;2023-10-08T06:37:45;7.03;;;3.53;;
36799;SDS011;22752;51.960;5.886;2023-10-08T06:40:14;12.85;;;4.45;;
36799;SDS011;22752;51.960;5.886;2023-10-08T06:43:16;13.20;;;4.25;;
36799;SDS011;22752;51.960;5.886;2023-10-08T06:45:51;11.73;;;4.10;;
36799;SDS011;22752;51.960;5.886;2023-10-08T06:48:21;11.82;;;4.65;;
36799;SDS011;22752;51.960;5.886;2023-10-08T06:50:48;15.07;;;4.07;;
36799;SDS011;22752;51.960;5.886;2023-10-08T06:53:16;11.65;;;4.07;;
36799;SDS011;22752;51.960;5.886;2023-10-08T06:55:43;10.45;;;3.45;;
36799;SDS011;22752;51.960;5.886;2023-10-08T06:58:09;15.30;;;4.28;;
36799;SDS011;22752;51.960;5.886;2023-10-08T07:00:39;12.55;;;3.53;;
36799;SDS011;22752;51.960;5.886;2023-10-08T07:03:08;9.77;;;3.83;;
36799;SDS011;22752;51.960;5.886;2023-10-08T07:05:40;9.63;;;3.80;;
36799;SDS011;22752;51.960;5.886;2023-10-08T07:08:09;7.45;;;3.75;;
36799;SDS011;22752;51.960;5.886;2023-10-08T07:10:38;5.50;;;4.00;;
36799;SDS011;22752;51.960;5.886;2023-10-08T07:13:06;7.05;;;3.85;;
36799;SDS011;22752;51.960;5.886;2023-10-08T07:15:33;8.35;;;3.60;;
36799;SDS011;22752;51.960;5.886;2023-10-08T07:18:05;8.48;;;4.18;;
36799;SDS011;22752;51.960;5.886;2023-10-08T07:20:35;6.60;;;4.50;;
36799;SDS011;22752;51.960;5.886;2023-10-08T07:23:04;8.52;;;4.15;;
36799;SDS011;22752;51.960;5.886;2023-10-08T07:25:44;6.93;;;5.10;;
36799;SDS011;22752;51.960;5.886;2023-10-08T07:28:16;7.10;;;5.10;;
36799;SDS011;22752;51.960;5.886;2023-10-08T07:30:45;6.45;;;4.85;;
36799;SDS011;22752;51.960;5.886;2023-10-08T07:33:13;7.57;;;4.43;;
36799;SDS011;22752;51.960;5.886;2023-10-08T07:35:45;10.15;;;5.30;;
36799;SDS011;22752;51.960;5.886;2023-10-08T07:38:19;7.97;;;4.80;;
36799;SDS011;22752;51.960;5.886;2023-10-08T07:40:47;7.78;;;4.95;;
36799;SDS011;22752;51.960;5.886;2023-10-08T07:43:13;8.70;;;5.35;;
36799;SDS011;22752;51.960;5.886;2023-10-08T07:45:39;9.27;;;6.05;;
36799;SDS011;22752;51.960;5.886;2023-10-08T07:48:08;7.55;;;5.40;;
36799;SDS011;22752;51.960;5.886;2023-10-08T07:50:35;9.70;;;6.10;;
36799;SDS011;22752;51.960;5.886;2023-10-08T07:53:05;7.50;;;5.53;;
36799;SDS011;22752;51.960;5.886;2023-10-08T07:55:31;8.68;;;5.28;;
36799;SDS011;22752;51.960;5.886;2023-10-08T07:57:59;8.18;;;6.57;;
36799;SDS011;22752;51.960;5.886;2023-10-08T08:00:26;8.07;;;7.13;;
36799;SDS011;22752;51.960;5.886;2023-10-08T08:02:55;8.48;;;6.30;;
36799;SDS011;22752;51.960;5.886;2023-10-08T08:05:21;7.20;;;5.65;;
36799;SDS011;22752;51.960;5.886;2023-10-08T08:07:47;13.55;;;7.10;;
36799;SDS011;22752;51.960;5.886;2023-10-08T08:10:14;8.13;;;6.85;;
36799;SDS011;22752;51.960;5.886;2023-10-08T08:12:40;8.57;;;7.25;;
36799;SDS011;22752;51.960;5.886;2023-10-08T08:15:07;13.57;;;8.05;;
36799;SDS011;22752;51.960;5.886;2023-10-08T08:17:43;8.85;;;6.85;;
36799;SDS011;22752;51.960;5.886;2023-10-08T08:20:09;9.35;;;7.18;;
36799;SDS011;22752;51.960;5.886;2023-10-08T08:22:44;8.88;;;7.15;;
36799;SDS011;22752;51.960;5.886;2023-10-08T08:25:19;8.32;;;6.32;;
36799;SDS011;22752;51.960;5.886;2023-10-08T08:28:07;7.10;;;5.85;;
36799;SDS011;22752;51.960;5.886;2023-10-08T08:30:41;7.65;;;5.75;;
36799;SDS011;22752;51.960;5.886;2023-10-08T08:33:12;11.05;;;7.53;;
36799;SDS011;22752;51.960;5.886;2023-10-08T08:35:39;12.25;;;6.93;;
36799;SDS011;22752;51.960;5.886;2023-10-08T08:38:04;13.05;;;7.05;;
36799;SDS011;22752;51.960;5.886;2023-10-08T08:40:33;9.38;;;6.15;;
36799;SDS011;22752;51.960;5.886;2023-10-08T08:42:59;10.07;;;6.35;;
36799;SDS011;22752;51.960;5.886;2023-10-08T08:45:29;11.80;;;6.88;;
36799;SDS011;22752;51.960;5.886;2023-10-08T08:47:58;13.40;;;7.72;;
36799;SDS011;22752;51.960;5.886;2023-10-08T08:50:24;13.13;;;7.68;;
36799;SDS011;22752;51.960;5.886;2023-10-08T08:52:52;13.95;;;7.20;;
36799;SDS011;22752;51.960;5.886;2023-10-08T08:55:17;10.48;;;6.57;;
36799;SDS011;22752;51.960;5.886;2023-10-08T08:57:49;10.68;;;6.63;;
36799;SDS011;22752;51.960;5.886;2023-10-08T09:00:18;12.63;;;6.28;;
36799;SDS011;22752;51.960;5.886;2023-10-08T09:02:45;10.90;;;6.45;;
36799;SDS011;22752;51.960;5.886;2023-10-08T09:05:12;14.95;;;4.72;;
36799;SDS011;22752;51.960;5.886;2023-10-08T09:10:34;6.97;;;4.38;;
36799;SDS011;22752;51.960;5.886;2023-10-08T09:13:06;10.25;;;4.95;;
36799;SDS011;22752;51.960;5.886;2023-10-08T09:15:36;8.15;;;4.95;;
36799;SDS011;22752;51.960;5.886;2023-10-08T09:18:03;9.27;;;4.43;;
36799;SDS011;22752;51.960;5.886;2023-10-08T09:20:29;8.60;;;4.70;;
36799;SDS011;22752;51.960;5.886;2023-10-08T09:25:51;8.18;;;3.53;;
36799;SDS011;22752;51.960;5.886;2023-10-08T09:28:27;5.05;;;3.13;;
36799;SDS011;22752;51.960;5.886;2023-10-08T09:30:54;6.85;;;2.80;;
36799;SDS011;22752;51.960;5.886;2023-10-08T09:33:23;6.18;;;2.72;;
36799;SDS011;22752;51.960;5.886;2023-10-08T09:35:50;7.30;;;3.13;;
36799;SDS011;22752;51.960;5.886;2023-10-08T09:38:20;5.00;;;2.33;;
36799;SDS011;22752;51.960;5.886;2023-10-08T09:40:48;5.90;;;2.17;;
36799;SDS011;22752;51.960;5.886;2023-10-08T09:43:15;6.68;;;2.30;;
36799;SDS011;22752;51.960;5.886;2023-10-08T09:45:47;3.70;;;1.83;;
36799;SDS011;22752;51.960;5.886;2023-10-08T09:48:17;4.25;;;1.88;;
36799;SDS011;22752;51.960;5.886;2023-10-08T09:50:45;4.95;;;1.80;;
36799;SDS011;22752;51.960;5.886;2023-10-08T09:53:12;2.72;;;2.10;;
36799;SDS011;22752;51.960;5.886;2023-10-08T09:55:59;7.10;;;2.00;;
36799;SDS011;22752;51.960;5.886;2023-10-08T09:58:30;3.22;;;1.80;;
36799;SDS011;22752;51.960;5.886;2023-10-08T10:00:56;4.75;;;2.05;;
36799;SDS011;22752;51.960;5.886;2023-10-08T10:03:23;6.72;;;2.10;;
36799;SDS011;22752;51.960;5.886;2023-10-08T10:05:51;4.82;;;2.10;;
36799;SDS011;22752;51.960;5.886;2023-10-08T10:08:18;6.03;;;2.13;;
36799;SDS011;22752;51.960;5.886;2023-10-08T10:10:49;5.15;;;2.20;;
36799;SDS011;22752;51.960;5.886;2023-10-08T10:13:27;4.75;;;2.00;;
36799;SDS011;22752;51.960;5.886;2023-10-08T10:15:54;5.57;;;2.10;;
36799;SDS011;22752;51.960;5.886;2023-10-08T10:20:51;5.50;;;2.17;;
36799;SDS011;22752;51.960;5.886;2023-10-08T10:23:41;4.80;;;2.00;;
36799;SDS011;22752;51.960;5.886;2023-10-08T10:31:51;5.63;;;2.30;;
36799;SDS011;22752;51.960;5.886;2023-10-08T10:34:26;6.00;;;2.30;;
36799;SDS011;22752;51.960;5.886;2023-10-08T10:36:53;3.42;;;2.00;;
36799;SDS011;22752;51.960;5.886;2023-10-08T10:39:21;7.53;;;2.35;;
36799;SDS011;22752;51.960;5.886;2023-10-08T10:41:59;5.97;;;1.90;;
36799;SDS011;22752;51.960;5.886;2023-10-08T10:44:32;2.78;;;1.70;;
36799;SDS011;22752;51.960;5.886;2023-10-08T10:47:01;3.28;;;1.90;;
36799;SDS011;22752;51.960;5.886;2023-10-08T10:49:43;4.82;;;1.92;;
36799;SDS011;22752;51.960;5.886;2023-10-08T10:52:20;2.83;;;1.70;;
36799;SDS011;22752;51.960;5.886;2023-10-08T10:55:05;4.45;;;1.88;;
36799;SDS011;22752;51.960;5.886;2023-10-08T10:57:41;3.83;;;1.80;;
36799;SDS011;22752;51.960;5.886;2023-10-08T11:00:08;4.05;;;1.88;;
36799;SDS011;22752;51.960;5.886;2023-10-08T11:02:53;4.65;;;2.15;;
36799;SDS011;22752;51.960;5.886;2023-10-08T11:05:25;5.80;;;2.20;;
36799;SDS011;22752;51.960;5.886;2023-10-08T11:07:56;4.32;;;2.05;;
36799;SDS011;22752;51.960;5.886;2023-10-08T11:10:30;3.85;;;2.08;;
36799;SDS011;22752;51.960;5.886;2023-10-08T11:13:04;4.30;;;1.60;;
36799;SDS011;22752;51.960;5.886;2023-10-08T11:15:39;3.63;;;1.92;;
36799;SDS011;22752;51.960;5.886;2023-10-08T11:18:10;3.58;;;1.67;;
36799;SDS011;22752;51.960;5.886;2023-10-08T11:20:36;4.93;;;2.00;;
36799;SDS011;22752;51.960;5.886;2023-10-08T11:23:05;3.53;;;1.92;;
36799;SDS011;22752;51.960;5.886;2023-10-08T11:25:56;6.00;;;2.72;;
36799;SDS011;22752;51.960;5.886;2023-10-08T11:28:33;3.92;;;2.03;;
36799;SDS011;22752;51.960;5.886;2023-10-08T11:31:12;2.80;;;1.83;;
36799;SDS011;22752;51.960;5.886;2023-10-08T11:33:45;3.90;;;2.05;;
36799;SDS011;22752;51.960;5.886;2023-10-08T11:36:21;4.40;;;2.15;;
36799;SDS011;22752;51.960;5.886;2023-10-08T11:41:26;5.57;;;3.92;;
36799;SDS011;22752;51.960;5.886;2023-10-08T11:43:56;11.02;;;6.30;;
36799;SDS011;22752;51.960;5.886;2023-10-08T11:46:23;5.82;;;2.92;;
36799;SDS011;22752;51.960;5.886;2023-10-08T11:49:03;4.30;;;2.20;;
36799;SDS011;22752;51.960;5.886;2023-10-08T11:51:33;3.15;;;1.83;;
36799;SDS011;22752;51.960;5.886;2023-10-08T11:54:03;5.85;;;1.83;;
36799;SDS011;22752;51.960;5.886;2023-10-08T11:56:36;3.13;;;1.85;;
36799;SDS011;22752;51.960;5.886;2023-10-08T11:59:03;4.57;;;1.75;;
36799;SDS011;22752;51.960;5.886;2023-10-08T12:01:36;3.63;;;1.73;;
36799;SDS011;22752;51.960;5.886;2023-10-08T12:04:03;3.78;;;1.75;;
36799;SDS011;22752;51.960;5.886;2023-10-08T12:06:30;3.92;;;1.65;;
36799;SDS011;22752;51.960;5.886;2023-10-08T12:08:59;2.63;;;1.90;;
36799;SDS011;22752;51.960;5.886;2023-10-08T12:11:25;3.35;;;1.60;;
36799;SDS011;22752;51.960;5.886;2023-10-08T12:13:59;1.58;;;1.48;;
36799;SDS011;22752;51.960;5.886;2023-10-08T12:16:25;3.05;;;1.98;;
36799;SDS011;22752;51.960;5.886;2023-10-08T12:18:54;4.10;;;1.90;;
36799;SDS011;22752;51.960;5.886;2023-10-08T12:21:27;3.63;;;1.88;;
36799;SDS011;22752;51.960;5.886;2023-10-08T12:23:57;3.67;;;1.90;;
36799;SDS011;22752;51.960;5.886;2023-10-08T12:26:23;4.60;;;2.15;;
36799;SDS011;22752;51.960;5.886;2023-10-08T12:28:49;2.85;;;1.67;;
36799;SDS011;22752;51.960;5.886;2023-10-08T12:31:15;2.70;;;1.90;;
36799;SDS011;22752;51.960;5.886;2023-10-08T12:33:49;3.97;;;2.47;;
36799;SDS011;22752;51.960;5.886;2023-10-08T12:36:25;2.00;;;1.73;;
36799;SDS011;22752;51.960;5.886;2023-10-08T12:38:52;4.90;;;2.00;;
36799;SDS011;22752;51.960;5.886;2023-10-08T12:41:25;4.07;;;2.25;;
36799;SDS011;22752;51.960;5.886;2023-10-08T12:43:54;4.55;;;2.45;;
36799;SDS011;22752;51.960;5.886;2023-10-08T12:46:20;3.20;;;1.90;;
36799;SDS011;22752;51.960;5.886;2023-10-08T12:48:50;4.82;;;2.50;;
36799;SDS011;22752;51.960;5.886;2023-10-08T12:51:29;3.88;;;2.70;;
36799;SDS011;22752;51.960;5.886;2023-10-08T12:53:58;3.25;;;2.20;;
36799;SDS011;22752;51.960;5.886;2023-10-08T12:56:31;4.95;;;2.80;;
36799;SDS011;22752;51.960;5.886;2023-10-08T12:59:01;3.92;;;2.22;;
36799;SDS011;22752;51.960;5.886;2023-10-08T13:01:31;3.75;;;2.33;;
36799;SDS011;22752;51.960;5.886;2023-10-08T13:03:57;6.60;;;3.17;;
36799;SDS011;22752;51.960;5.886;2023-10-08T13:06:26;3.28;;;2.25;;
36799;SDS011;22752;51.960;5.886;2023-10-08T13:08:56;4.60;;;2.63;;
36799;SDS011;22752;51.960;5.886;2023-10-08T13:11:23;4.38;;;1.77;;
36799;SDS011;22752;51.960;5.886;2023-10-08T13:13:51;4.82;;;2.35;;
36799;SDS011;22752;51.960;5.886;2023-10-08T13:16:19;4.50;;;2.00;;
36799;SDS011;22752;51.960;5.886;2023-10-08T13:18:46;2.78;;;1.63;;
36799;SDS011;22752;51.960;5.886;2023-10-08T13:21:15;2.10;;;1.60;;
36799;SDS011;22752;51.960;5.886;2023-10-08T13:23:44;3.50;;;1.95;;
36799;SDS011;22752;51.960;5.886;2023-10-08T13:26:11;3.10;;;2.10;;
36799;SDS011;22752;51.960;5.886;2023-10-08T13:28:42;4.10;;;2.40;;
36799;SDS011;22752;51.960;5.886;2023-10-08T13:31:09;3.45;;;2.45;;
36799;SDS011;22752;51.960;5.886;2023-10-08T13:33:39;4.32;;;2.53;;
36799;SDS011;22752;51.960;5.886;2023-10-08T13:36:07;5.18;;;3.08;;
36799;SDS011;22752;51.960;5.886;2023-10-08T13:38:38;5.43;;;2.45;;
36799;SDS011;22752;51.960;5.886;2023-10-08T13:41:08;3.63;;;2.60;;
36799;SDS011;22752;51.960;5.886;2023-10-08T13:43:49;4.57;;;2.67;;
36799;SDS011;22752;51.960;5.886;2023-10-08T13:46:27;4.18;;;2.72;;
36799;SDS011;22752;51.960;5.886;2023-10-08T13:48:52;3.83;;;2.70;;
36799;SDS011;22752;51.960;5.886;2023-10-08T13:51:19;2.60;;;2.22;;
36799;SDS011;22752;51.960;5.886;2023-10-08T13:56:28;3.75;;;2.47;;
36799;SDS011;22752;51.960;5.886;2023-10-08T13:58:56;6.28;;;2.55;;
36799;SDS011;22752;51.960;5.886;2023-10-08T14:01:30;3.08;;;2.13;;
36799;SDS011;22752;51.960;5.886;2023-10-08T14:03:58;7.10;;;3.00;;
36799;SDS011;22752;51.960;5.886;2023-10-08T14:06:30;5.50;;;2.33;;
36799;SDS011;22752;51.960;5.886;2023-10-08T14:08:56;6.65;;;2.25;;
36799;SDS011;22752;51.960;5.886;2023-10-08T14:11:22;5.03;;;3.05;;
36799;SDS011;22752;51.960;5.886;2023-10-08T14:13:55;2.83;;;2.17;;
36799;SDS011;22752;51.960;5.886;2023-10-08T14:16:21;4.10;;;2.92;;
36799;SDS011;22752;51.960;5.886;2023-10-08T14:18:53;9.55;;;3.58;;
36799;SDS011;22752;51.960;5.886;2023-10-08T14:21:20;8.20;;;2.33;;
36799;SDS011;22752;51.960;5.886;2023-10-08T14:23:52;4.85;;;2.80;;
36799;SDS011;22752;51.960;5.886;2023-10-08T14:26:17;4.10;;;2.97;;
36799;SDS011;22752;51.960;5.886;2023-10-08T14:28:47;4.35;;;2.65;;
36799;SDS011;22752;51.960;5.886;2023-10-08T14:31:18;5.85;;;3.05;;
36799;SDS011;22752;51.960;5.886;2023-10-08T14:33:47;4.88;;;3.05;;
36799;SDS011;22752;51.960;5.886;2023-10-08T14:36:52;6.15;;;3.15;;
36799;SDS011;22752;51.960;5.886;2023-10-08T14:39:37;6.40;;;4.60;;
36799;SDS011;22752;51.960;5.886;2023-10-08T14:42:21;5.53;;;4.63;;
36799;SDS011;22752;51.960;5.886;2023-10-08T14:45:05;8.02;;;4.60;;
36799;SDS011;22752;51.960;5.886;2023-10-08T14:47:36;9.63;;;4.35;;
36799;SDS011;22752;51.960;5.886;2023-10-08T14:50:02;10.88;;;5.97;;
36799;SDS011;22752;51.960;5.886;2023-10-08T14:52:30;9.68;;;6.30;;
36799;SDS011;22752;51.960;5.886;2023-10-08T14:54:56;9.15;;;7.22;;
36799;SDS011;22752;51.960;5.886;2023-10-08T14:57:22;9.98;;;5.75;;
36799;SDS011;22752;51.960;5.886;2023-10-08T14:59:49;9.00;;;5.20;;
36799;SDS011;22752;51.960;5.886;2023-10-08T15:02:16;7.15;;;5.47;;
36799;SDS011;22752;51.960;5.886;2023-10-08T15:04:42;7.25;;;4.95;;
36799;SDS011;22752;51.960;5.886;2023-10-08T15:07:09;6.63;;;5.25;;
36799;SDS011;22752;51.960;5.886;2023-10-08T15:09:42;7.80;;;5.18;;
36799;SDS011;22752;51.960;5.886;2023-10-08T15:12:09;7.03;;;4.20;;
36799;SDS011;22752;51.960;5.886;2023-10-08T15:14:35;7.20;;;4.05;;
36799;SDS011;22752;51.960;5.886;2023-10-08T15:17:03;7.95;;;3.75;;
36799;SDS011;22752;51.960;5.886;2023-10-08T15:19:30;7.68;;;3.88;;
36799;SDS011;22752;51.960;5.886;2023-10-08T15:21:56;5.28;;;3.75;;
36799;SDS011;22752;51.960;5.886;2023-10-08T15:24:23;6.32;;;3.55;;
36799;SDS011;22752;51.960;5.886;2023-10-08T15:26:49;7.72;;;4.38;;
36799;SDS011;22752;51.960;5.886;2023-10-08T15:29:22;3.28;;;2.63;;
36799;SDS011;22752;51.960;5.886;2023-10-08T15:31:52;4.80;;;3.20;;
36799;SDS011;22752;51.960;5.886;2023-10-08T15:34:19;5.35;;;2.85;;
36799;SDS011;22752;51.960;5.886;2023-10-08T15:36:45;3.58;;;2.90;;